Latest Coastal Weather Observations for Point Fawcett

IDD60701

Issued at 3:21 pm CST Tuesday 1 September 2015 (issued every 10 minutes, with the page automatically refreshed every 10 minutes)

About coastal observations | Map of coastal stations | Coastal observations for NT | Marine services | Other Formats
Station Details ID: 200731 Name: POINT FAWCETT Lat: -11.76 Lon: 130.03 Height: 6.5 m
Data from the previous 72 hours. | See also: Recent months at Point Fawcett
Date/Time
CST
Temp

°C
Wind Pressure Rain
since 9am
mm
Weather Cloud Vis
km
Sea
Height
m
Swell
Dir
 
Speed
knots
Gust
knots
hPa Trend Height
m
Period
s
Dir
01/03:00pm 30.7 WSW 7 9 1012.4 - 0.0 - - - - - - -
01/02:30pm 30.3 WSW 6 9 1012.9 - 0.0 - - - - - - -
01/02:00pm 30.2 W 7 9 1013.2 - 0.0 - - - - - - -
01/01:30pm 30.1 W 6 9 1013.7 - 0.0 - - - - - - -
01/01:00pm 30.1 W 6 9 1014.0 - 0.0 - - - - - - -
01/12:30pm 30.0 W 6 9 1014.4 - 0.0 - - - - - - -
01/12:00pm 29.9 W 6 8 1014.6 - 0.0 - - - - - - -
01/11:30am 29.6 WSW 6 8 1015.1 - 0.0 - - - - - - -
01/11:00am 29.1 WSW 5 7 1015.5 - 0.0 - - - - - - -
01/10:30am 29.3 WSW 5 6 1015.7 - 0.0 - - - - - - -
01/10:00am 28.2 W 4 5 1015.7 - 0.0 - - - - - - -
01/09:30am 28.4 NW 4 5 1015.7 - 0.0 - - - - - - -
01/09:00am 28.1 ESE 4 5 1015.4 - 0.0 - - - - - - -
01/08:30am 26.2 SE 1 3 1015.2 - 0.0 - - - - - - -
01/08:00am 23.2 ESE 3 4 1015.1 - 0.0 - - - - - - -
01/07:30am 20.7 ESE 4 5 1014.6 - 0.0 - - - - - - -
01/07:00am 20.0 ESE 4 5 1014.2 - 0.0 - - - - - - -
01/06:30am 20.1 ESE 4 5 1013.7 - 0.0 - - - - - - -
01/06:00am 20.1 ESE 3 4 1013.3 - 0.0 - - - - - - -
01/05:30am 19.6 SE 4 4 1013.1 - 0.0 - - - - - - -
01/05:00am 19.8 SSE 3 3 1012.8 - 0.0 - - - - - - -
01/04:30am 20.1 S 3 4 1012.8 - 0.0 - - - - - - -
01/04:00am 20.3 S 3 4 1012.8 - 0.0 - - - - - - -
01/03:30am 20.4 S 3 4 1012.9 - 0.0 - - - - - - -
01/03:00am 21.0 SSW 4 6 1012.8 - 0.0 - - - - - - -
01/02:30am 20.9 S 4 4 1013.3 - 0.0 - - - - - - -
01/02:00am 21.4 S 3 4 1013.6 - 0.0 - - - - - - -
01/01:30am 22.0 SSW 2 3 1013.7 - 0.0 - - - - - - -
01/01:00am 22.4 SSW 2 4 1014.0 - 0.0 - - - - - - -
01/12:30am 24.2 W 5 7 1014.2 - 0.0 - - - - - - -
01/12:00am 25.7 WSW 5 7 1014.2 - 0.0 - - - - - - -
 
Date/Time
CST
Temp

°C
Wind Pressure Rain
since 9am
mm
Weather Cloud Vis
km
Sea
Height
m
Swell
Dir
 
Speed
knots
Gust
knots
hPa Trend Height
m
Period
s
Dir
31/11:30pm 26.0 WSW 6 8 1014.2 - 0.0 - - - - - - -
31/11:00pm 26.0 W 7 9 1014.1 - 0.0 - - - - - - -
31/10:30pm 26.1 WSW 6 9 1014.0 - 0.0 - - - - - - -
31/10:00pm 26.1 W 7 9 1014.1 - 0.0 - - - - - - -
31/09:30pm 26.1 W 7 9 1014.1 - 0.0 - - - - - - -
31/09:00pm 26.1 W 7 8 1014.0 - 0.0 - - - - - - -
31/08:30pm 26.3 W 7 9 1013.7 - 0.0 - - - - - - -
31/08:00pm 26.4 W 6 8 1013.5 - 0.0 - - - - - - -
31/07:30pm 26.5 W 6 8 1013.1 - 0.0 - - - - - - -
31/07:00pm 26.8 WSW 6 8 1012.8 - 0.0 - - - - - - -
31/06:30pm 27.8 WSW 6 8 1012.8 - 0.0 - - - - - - -
31/06:00pm 28.5 WSW 5 8 1012.6 - 0.0 - - - - - - -
31/05:30pm 29.0 WSW 6 9 1012.4 - 0.0 - - - - - - -
31/05:00pm 29.6 WSW 6 9 1012.4 - 0.0 - - - - - - -
31/04:30pm 29.8 WSW 7 9 1012.5 - 0.0 - - - - - - -
31/04:00pm 30.3 WSW 7 9 1012.7 - 0.0 - - - - - - -
31/03:30pm 30.2 WSW 7 11 1012.9 - 0.0 - - - - - - -
31/03:00pm 30.6 WSW 7 11 1013.3 - 0.0 - - - - - - -
31/02:30pm 30.3 WSW 7 11 1013.6 - 0.0 - - - - - - -
31/02:00pm 30.9 WSW 7 10 1013.8 - 0.0 - - - - - - -
31/01:30pm 30.3 W 6 8 1014.1 - 0.0 - - - - - - -
31/01:00pm 30.2 W 7 9 1014.5 - 0.0 - - - - - - -
31/12:30pm 29.7 W 6 8 1014.8 - 0.0 - - - - - - -
31/12:00pm 29.9 WNW 6 8 1015.1 - 0.0 - - - - - - -
31/11:30am 30.3 NW 7 8 1015.4 - 0.0 - - - - - - -
31/11:00am 29.3 WNW 6 8 1015.9 - 0.0 - - - - - - -
31/10:30am 29.3 NW 6 7 1016.1 - 0.0 - - - - - - -
31/10:00am 28.9 NNW 5 6 1016.1 - 0.0 - - - - - - -
31/09:30am 28.5 N 4 5 1016.0 - 0.0 - - - - - - -
31/09:00am 27.9 NNE 4 6 1015.9 - 0.0 - - - - - - -
31/08:30am 26.6 NE 3 5 1015.7 - 0.0 - - - - - - -
31/08:00am 23.4 ESE 3 4 1015.5 - 0.0 - - - - - - -
31/07:30am 21.3 E 3 4 1014.9 - 0.0 - - - - - - -
31/07:00am 20.4 ENE 4 5 1014.6 - 0.0 - - - - - - -
31/06:30am 20.6 ENE 4 5 1014.1 - 0.0 - - - - - - -
31/06:00am 21.4 E 4 5 1013.9 - 0.0 - - - - - - -
31/05:30am 20.8 ENE 3 4 1013.8 - 0.0 - - - - - - -
31/05:00am 20.4 ENE 3 3 1013.7 - 0.0 - - - - - - -
31/04:30am 20.8 SE 1 4 1013.8 - 0.0 - - - - - - -
31/04:00am 21.0 CALM 0 0 1013.9 - 0.0 - - - - - - -
31/03:30am 21.2 CALM 0 0 1014.0 - 0.0 - - - - - - -
31/03:00am 21.8 SSW 3 4 1014.1 - 0.0 - - - - - - -
31/02:30am 21.9 CALM 0 0 1014.4 - 0.0 - - - - - - -
31/02:00am 21.9 S 2 4 1014.6 - 0.0 - - - - - - -
31/01:30am 22.4 W 4 6 1014.7 - 0.0 - - - - - - -
31/01:00am 23.2 S 1 3 1015.0 - 0.0 - - - - - - -
31/12:30am 24.4 WSW 3 5 1015.4 - 0.0 - - - - - - -
31/12:00am 25.1 WSW 4 6 1015.5 - 0.0 - - - - - - -
 
Date/Time
CST
Temp

°C
Wind Pressure Rain
since 9am
mm
Weather Cloud Vis
km
Sea
Height
m
Swell
Dir
 
Speed
knots
Gust
knots
hPa Trend Height
m
Period
s
Dir
30/11:30pm 24.5 WSW 4 6 1015.4 - 0.0 - - - - - - -
30/11:00pm 24.9 SW 5 6 1015.1 - 0.0 - - - - - - -
30/10:30pm 24.7 WSW 4 7 1015.0 - 0.0 - - - - - - -
30/10:00pm 25.5 WSW 5 6 1014.8 - 0.0 - - - - - - -
30/09:30pm 25.8 W 5 7 1014.8 - 0.0 - - - - - - -
30/09:00pm 26.0 W 5 7 1014.6 - 0.0 - - - - - - -
30/08:30pm 26.2 W 5 7 1014.2 - 0.0 - - - - - - -
30/08:00pm 26.3 W 6 7 1013.9 - 0.0 - - - - - - -
30/07:30pm 26.4 W 6 8 1013.6 - 0.0 - - - - - - -
30/07:00pm 26.6 W 6 8 1013.4 - 0.0 - - - - - - -
30/06:30pm 27.1 W 6 8 1013.1 - 0.0 - - - - - - -
30/06:00pm 28.0 WSW 6 8 1012.9 - 0.0 - - - - - - -
30/05:30pm 28.9 SW 6 9 1012.7 - 0.0 - - - - - - -
30/05:00pm 28.9 SW 8 10 1012.7 - 0.0 - - - - - - -
30/04:30pm 29.3 SW 8 11 1012.6 - 0.0 - - - - - - -
30/04:00pm 29.5 WSW 9 13 1012.7 - 0.0 - - - - - - -
30/03:30pm 31.0 S 7 13 1012.6 - 0.0 - - - - - - -
30/03:00pm 32.3 SSE 7 14 1012.7 - 0.0 - - - - - - -
30/02:30pm 31.8 SE 7 14 1013.0 - 0.0 - - - - - - -
30/02:00pm 31.9 SE 7 12 1013.5 - 0.0 - - - - - - -
30/01:30pm 31.6 SE 9 14 1014.0 - 0.0 - - - - - - -
30/01:00pm 31.7 ESE 8 15 1014.5 - 0.0 - - - - - - -
30/12:30pm 31.1 SE 7 13 1014.8 - 0.0 - - - - - - -
30/12:00pm 31.7 ESE 7 13 1015.2 - 0.0 - - - - - - -
30/11:30am 30.5 ESE 8 13 1015.8 - 0.0 - - - - - - -
30/11:00am 30.8 E 9 15 1016.3 - 0.0 - - - - - - -
30/10:30am 30.8 ESE 6 10 1016.3 - 0.0 - - - - - - -
30/10:00am 30.0 E 7 10 1016.4 - 0.0 - - - - - - -
30/09:30am 28.5 E 8 13 1016.3 - 0.0 - - - - - - -
30/09:00am 27.5 E 6 11 1016.1 - 0.0 - - - - - - -
30/08:30am 25.5 ENE 6 10 1015.8 - 0.0 - - - - - - -
30/08:00am 23.6 ENE 6 9 1015.5 - 0.0 - - - - - - -
30/07:30am 20.8 E 5 6 1015.1 - 0.0 - - - - - - -
30/07:00am 20.3 E 4 6 1014.7 - 0.0 - - - - - - -
30/06:30am 20.5 ENE 5 6 1014.4 - 0.0 - - - - - - -
30/06:00am 18.6 E 4 5 1014.2 - 0.0 - - - - - - -
30/05:30am 18.6 E 4 5 1013.9 - 0.0 - - - - - - -
30/05:00am 18.6 E 4 5 1013.8 - 0.0 - - - - - - -
30/04:30am 18.7 E 4 4 1013.7 - 0.0 - - - - - - -
30/04:00am 19.0 E 4 5 1013.8 - 0.0 - - - - - - -
30/03:30am 18.9 E 4 5 1014.0 - 0.0 - - - - - - -
30/03:00am 19.4 ESE 4 5 1014.2 - 0.0 - - - - - - -
30/02:30am 19.3 ESE 4 5 1014.4 - 0.0 - - - - - - -
30/02:00am 19.7 SE 5 5 1014.4 - 0.0 - - - - - - -
30/01:30am 20.0 SE 4 4 1014.6 - 0.0 - - - - - - -
30/01:00am 20.3 SE 3 4 1014.9 - 0.0 - - - - - - -
30/12:30am 20.7 ESE 3 4 1015.1 - 0.0 - - - - - - -
30/12:00am 21.4 ESE 3 4 1015.1 - 0.0 - - - - - - -
 
Date/Time
CST
Temp

°C
Wind Pressure Rain
since 9am
mm
Weather Cloud Vis
km
Sea
Height
m
Swell
Dir
 
Speed
knots
Gust
knots
hPa Trend Height
m
Period
s
Dir
29/11:30pm 22.3 E 3 4 1015.1 - 0.0 - - - - - - -
29/11:00pm 23.8 NE 3 4 1015.2 - 0.0 - - - - - - -
29/10:30pm 25.3 NNE 4 7 1015.2 - 0.0 - - - - - - -
29/10:00pm 25.7 NNE 5 6 1015.3 - 0.0 - - - - - - -
29/09:30pm 25.9 NNE 6 7 1015.0 - 0.0 - - - - - - -
29/09:00pm 26.2 NNW 7 10 1014.9 - 0.0 - - - - - - -
29/08:30pm 26.3 NNW 7 10 1014.6 - 0.0 - - - - - - -
29/08:00pm 26.6 N 8 10 1014.4 - 0.0 - - - - - - -
29/07:30pm 26.4 N 8 12 1014.0 - 0.0 - - - - - - -
29/07:00pm 26.5 N 9 13 1013.7 - 0.0 - - - - - - -
29/06:30pm 27.2 NNW 9 11 1013.4 - 0.0 - - - - - - -
29/06:00pm 28.4 WNW 8 9 1013.2 - 0.0 - - - - - - -
29/05:30pm 30.1 SSW 5 9 1012.8 - 0.0 - - - - - - -
29/05:00pm 29.9 SSW 6 10 1012.4 - 0.0 - - - - - - -
29/04:30pm 30.1 SW 8 11 1012.4 - 0.0 - - - - - - -
29/04:00pm 30.8 SW 8 11 1012.6 - 0.0 - - - - - - -
29/03:30pm 30.3 SW 8 15 1012.8 - 0.0 - - - - - - -

Other Formats:

Comma delimited format used in spreadsheet applications
http://www.bom.gov.au/fwo/IDD60701/IDD60701.94122.axf

JavaScript Object Notation format (JSON) in row-major order
http://www.bom.gov.au/fwo/IDD60701/IDD60701.94122.json